Latest Weather Observations for Macquarie Island

IDT60801

Issued at 4:11 pm EDT Friday 16 November 2018 (issued every 10 minutes, with the page automatically refreshed every 10 minutes)

About weather observations | Map of weather stations | Latest weather observations for TAS | Other Formats
Station Details ID: 300004 Name: MACQUARIE ISLAND Lat: -54.50 Lon: 158.94 Height: 6.0 m
Data from the previous 72 hours. | See also: Recent months at Macquarie Island
Date/Time
EDT
Temp
°C
App
Temp
°C
Dew
Point
°C
Rel
Hum
%
Delta-T
°C
Wind Press
QNH
hPa
Press
MSL
hPa
Rain since
9am
mm
Dir  Spd
km/h
Gust
km/h
Spd
kts
Gust
kts
16/04:00pm 6.9 -2.5 4.2 83 1.2 NNW 43 50 23 27 1009.5 - 0.0
16/03:30pm 6.9 -3.1 4.2 83 1.2 NNW 46 54 25 29 1009.9 - 0.0
16/03:00pm 7.0 -3.1 3.8 80 1.4 NNW 46 54 25 29 1010.2 1010.5 0.0
16/02:30pm 6.8 -2.8 4.3 84 1.1 NNW 44 52 24 28 1010.5 - 0.0
16/02:00pm 7.2 -2.4 4.2 81 1.3 NNW 44 52 24 28 1011.1 - 0.0
16/01:30pm 7.7 -1.7 4.7 81 1.3 NNW 43 52 23 28 1011.3 - 0.0
16/01:00pm 7.9 -1.5 4.3 78 1.6 NNW 43 52 23 28 1011.8 - 0.0
16/12:30pm 8.1 -1.5 4.5 78 1.6 NNW 44 50 24 27 1012.1 - 0.0
16/12:00pm 7.8 -1.6 4.6 80 1.4 NNW 43 48 23 26 1012.4 1012.7 0.0
16/11:30am 7.5 -2.0 4.1 79 1.5 NNW 43 50 23 27 1012.7 - 0.0
16/11:00am 7.4 -2.0 4.7 83 1.2 NNW 43 48 23 26 1013.0 - 0.0
16/10:30am 7.0 -2.4 4.3 83 1.2 NNW 43 52 23 28 1013.3 - 0.0
16/10:00am 7.3 -0.5 4.8 84 1.1 NNW 35 43 19 23 1013.6 - 0.0
16/09:30am 6.3 -1.4 3.6 83 1.1 NW 33 54 18 29 1013.8 - 0.0
16/09:29am 6.7 -0.6 4.4 85 1.0 NW 32 50 17 27 1014.0 - 0.0
16/09:00am 7.1 -1.2 4.1 81 1.3 NNW 37 44 20 24 1014.0 1014.3 0.2
16/08:30am 6.9 -0.5 3.9 81 1.3 NW 32 43 17 23 1014.2 - 0.2
16/08:00am 6.8 -0.8 4.1 83 1.2 NW 33 41 18 22 1014.3 - 0.2
16/07:30am 6.4 -1.6 3.7 83 1.1 NW 35 43 19 23 1014.3 - 0.2
16/07:00am 6.2 -2.2 3.5 83 1.1 NW 37 46 20 25 1014.4 - 0.2
16/06:30am 6.0 -2.1 3.5 84 1.0 NW 35 43 19 23 1014.6 - 0.2
16/06:00am 5.6 -2.5 3.4 86 0.9 NW 35 44 19 24 1014.7 1015.0 0.2
16/05:30am 5.5 -3.4 3.3 86 0.9 NW 39 44 21 24 1014.7 - 0.2
16/05:00am 5.4 -3.4 3.4 87 0.8 NW 39 46 21 25 1014.9 - 0.2
16/04:30am 5.3 -3.5 3.5 88 0.7 NW 39 46 21 25 1014.9 - 0.2
16/04:00am 5.2 -3.6 3.4 88 0.7 NW 39 44 21 24 1015.1 - 0.2
16/03:30am 5.2 -4.0 3.4 88 0.7 NW 41 46 22 25 1015.1 - 0.2
16/03:00am 5.2 -4.0 3.4 88 0.7 NW 41 46 22 25 1015.0 1015.3 0.2
16/02:30am 5.2 -3.6 3.5 89 0.7 NW 39 48 21 26 1014.8 - 0.2
16/02:00am 5.1 -4.1 3.4 89 0.7 NW 41 46 22 25 1014.7 - 0.2
16/01:30am 5.2 -3.6 3.5 89 0.7 NW 39 46 21 25 1014.7 - 0.2
16/01:00am 5.2 -3.6 3.7 90 0.6 NW 39 44 21 24 1014.7 - 0.2
16/12:30am 5.2 -3.2 3.7 90 0.6 NW 37 44 20 24 1014.8 - 0.2
16/12:00am 5.2 -3.5 3.9 91 0.5 NW 39 44 21 24 1014.9 1015.2 0.2
 
Date/Time
EDT
Temp
°C
App
Temp
°C
Dew
Point
°C
Rel
Hum
%
Delta-T
°C
Wind Press
QNH
hPa
Press
MSL
hPa
Rain since
9am
mm
Dir  Spd
km/h
Gust
km/h
Spd
kts
Gust
kts
15/11:30pm 5.2 -3.2 3.9 91 0.5 NW 37 46 20 25 1014.8 - 0.2
15/11:00pm 5.2 -3.6 3.7 90 0.6 NW 39 44 21 24 1014.6 - 0.2
15/10:30pm 5.3 -2.8 3.5 88 0.7 WNW 35 41 19 22 1014.7 - 0.2
15/10:00pm 5.2 -2.5 3.4 88 0.7 WNW 33 41 18 22 1014.6 - 0.2
15/09:30pm 5.2 -3.0 2.7 84 1.0 WNW 35 43 19 23 1014.4 - 0.2
15/09:00pm 5.2 -3.3 2.9 85 0.9 WNW 37 44 20 24 1014.1 1014.4 0.2
15/08:30pm 5.3 -3.6 3.3 87 0.8 WNW 39 48 21 26 1013.8 - 0.2
15/08:00pm 5.0 -3.5 3.2 88 0.7 WNW 37 44 20 24 1013.3 - 0.2
15/07:30pm 5.5 -3.0 3.3 86 0.9 WNW 37 44 20 24 1012.8 - 0.2
15/07:00pm 5.6 -3.3 3.1 84 1.0 WNW 39 46 21 25 1012.3 - 0.2
15/06:30pm 5.8 -3.7 3.8 87 0.8 WNW 43 52 23 28 1011.8 - 0.2
15/06:00pm 5.9 -2.9 3.6 85 1.0 WNW 39 50 21 27 1011.5 1011.8 0.2
15/05:30pm 6.1 -3.1 3.4 83 1.1 WNW 41 50 22 27 1011.2 - 0.2
15/05:00pm 6.5 -2.7 3.7 82 1.2 WNW 41 48 22 26 1010.9 - 0.2
15/04:30pm 6.5 -2.3 3.8 83 1.1 WNW 39 48 21 26 1010.7 - 0.2
15/04:00pm 7.1 -1.3 3.7 79 1.4 WNW 37 44 20 24 1010.5 - 0.2
15/03:30pm 7.3 -2.3 3.2 75 1.7 WNW 43 54 23 29 1010.2 - 0.2
15/03:00pm 7.2 -2.3 4.0 80 1.4 WNW 43 54 23 29 1009.9 1010.2 0.2
15/02:30pm 7.3 -2.5 3.4 76 1.7 WNW 44 54 24 29 1009.6 - 0.2
15/02:00pm 6.8 -3.8 3.1 77 1.5 WNW 48 59 26 32 1009.0 - 0.2
15/01:30pm 6.5 -4.5 3.1 79 1.4 WNW 50 65 27 35 1008.9 - 0.2
15/01:00pm 7.3 -3.8 2.4 71 2.0 WNW 50 63 27 34 1008.5 - 0.2
15/12:30pm 7.3 -3.0 2.4 71 2.0 WNW 46 57 25 31 1008.4 - 0.2
15/12:00pm 7.3 -2.8 1.6 67 2.3 WNW 44 56 24 30 1008.4 1008.7 0.2
15/11:30am 7.2 -2.7 1.7 68 2.2 WNW 43 52 23 28 1008.5 - 0.2
15/11:00am 7.0 -3.0 1.1 66 2.4 WNW 43 56 23 30 1008.5 - 0.2
15/10:30am 6.8 -3.2 1.3 68 2.2 W 43 54 23 29 1008.2 - 0.2
15/10:04am 5.5 -4.4 -0.8 64 2.4 W 41 61 22 33 1008.1 - 0.2
15/10:00am 5.8 -3.1 1.0 71 1.9 WNW 37 50 20 27 1007.9 - 0.2
15/09:31am 2.8 -7.8 0.9 87 0.7 WNW 46 65 25 35 1007.7 - 0.2
15/09:30am 2.6 -8.4 0.5 86 0.8 WNW 48 65 26 35 1007.8 - 0.2
15/09:20am 5.5 -4.7 0.9 72 1.8 WNW 44 67 24 36 1007.8 - 0.0
15/09:00am 5.8 -2.8 2.6 80 1.3 WNW 37 46 20 25 1007.2 1007.5 0.2
15/08:43am 5.1 -4.9 0.7 73 1.7 W 43 54 23 29 1007.1 - 0.2
15/08:30am 6.2 -3.8 2.1 75 1.7 WNW 44 54 24 29 1006.7 - 0.2
15/08:00am 5.7 -4.7 1.8 76 1.6 WNW 46 57 25 31 1006.4 - 0.2
15/07:30am 4.9 -4.5 2.1 82 1.1 WNW 41 48 22 26 1006.2 - 0.2
15/07:20am 4.9 -3.8 2.1 82 1.1 NW 37 54 20 29 1005.9 - 0.2
15/07:00am 4.6 -3.3 2.0 83 1.0 W 33 43 18 23 1005.8 - 0.2
15/06:34am 4.9 -6.4 1.0 76 1.5 W 50 59 27 32 1005.6 - 0.2
15/06:30am 5.6 -4.9 1.7 76 1.6 WNW 46 67 25 36 1005.3 - 0.2
15/06:29am 5.8 -4.2 2.3 78 1.4 NW 44 67 24 36 1005.2 - 0.2
15/06:00am 5.4 -4.0 2.1 79 1.3 NW 41 50 22 27 1004.8 1005.1 0.2
15/05:30am 5.3 -3.7 2.7 83 1.1 WNW 39 46 21 25 1004.7 - 0.2
15/05:00am 5.2 -4.6 2.4 82 1.1 WNW 43 50 23 27 1004.6 - 0.2
15/04:30am 5.3 -4.1 2.3 81 1.2 NW 41 48 22 26 1004.6 - 0.2
15/04:00am 5.2 -3.8 2.4 82 1.1 NW 39 46 21 25 1004.4 - 0.2
15/03:30am 5.2 -3.4 2.6 83 1.1 NW 37 43 20 23 1004.3 - 0.2
15/03:00am 5.2 -3.3 2.9 85 0.9 NW 37 41 20 22 1004.2 1004.5 0.2
15/02:30am 5.2 -3.3 3.1 86 0.9 NW 37 44 20 24 1003.9 - 0.2
15/02:00am 5.3 -3.2 3.0 85 0.9 NW 37 44 20 24 1003.9 - 0.2
15/01:30am 5.4 -3.9 2.8 83 1.1 NW 41 46 22 25 1003.6 - 0.2
15/01:00am 5.6 -3.7 2.8 82 1.1 NW 41 50 22 27 1003.4 - 0.2
15/12:30am 5.8 -3.5 3.1 83 1.1 NW 41 52 22 28 1003.4 - 0.2
15/12:00am 5.8 -1.7 3.5 85 1.0 NW 32 39 17 21 1003.6 1003.9 0.2
 
Date/Time
EDT
Temp
°C
App
Temp
°C
Dew
Point
°C
Rel
Hum
%
Delta-T
°C
Wind Press
QNH
hPa
Press
MSL
hPa
Rain since
9am
mm
Dir  Spd
km/h
Gust
km/h
Spd
kts
Gust
kts
14/11:30pm 5.7 -3.6 3.0 83 1.1 NW 41 48 22 26 1003.4 - 0.2
14/11:00pm 5.8 -3.9 3.0 82 1.2 NW 43 54 23 29 1003.5 - 0.2
14/10:30pm 5.8 -3.9 2.6 80 1.3 NW 43 54 23 29 1003.4 - 0.2
14/10:00pm 5.7 -4.1 2.5 80 1.3 NW 43 50 23 27 1003.2 - 0.2
14/09:30pm 5.7 -4.0 2.7 81 1.2 NW 43 52 23 28 1003.1 - 0.2
14/09:00pm 5.6 -4.2 2.4 80 1.3 NW 43 50 23 27 1002.9 1003.2 0.2
14/08:30pm 5.6 -4.2 2.3 79 1.3 NW 43 48 23 26 1002.7 - 0.2
14/08:00pm 5.7 -4.1 2.2 78 1.4 WNW 43 50 23 27 1002.2 - 0.2
14/07:30pm 5.9 -3.8 2.7 80 1.3 WNW 43 50 23 27 1001.9 - 0.2
14/07:00pm 6.1 -3.6 2.9 80 1.3 WNW 43 54 23 29 1001.6 - 0.2
14/06:30pm 6.4 -3.5 3.0 79 1.4 WNW 44 54 24 29 1001.3 - 0.2
14/06:00pm 6.9 -3.7 3.2 77 1.6 WNW 48 59 26 32 1000.8 1001.1 0.2
14/05:30pm 6.9 -3.3 3.2 77 1.6 WNW 46 57 25 31 1000.3 - 0.2
14/05:00pm 7.2 -2.9 3.8 79 1.5 NW 46 56 25 30 999.9 - 0.2
14/04:30pm 7.3 -2.3 4.3 81 1.3 NW 44 54 24 29 999.5 - 0.2
14/04:00pm 7.6 -2.0 4.4 80 1.4 NW 44 52 24 28 999.1 - 0.2
14/03:30pm 7.8 -2.6 4.4 79 1.5 NW 48 57 26 31 998.8 - 0.2
14/03:00pm 8.0 -2.3 4.6 79 1.5 NW 48 59 26 32 998.4 998.7 0.2
14/02:30pm 8.1 -2.2 4.5 78 1.6 NW 48 56 26 30 997.9 - 0.2
14/02:00pm 8.4 -2.3 4.8 78 1.6 WNW 50 59 27 32 997.5 - 0.2
14/01:30pm 8.5 -1.6 5.6 82 1.3 NW 48 57 26 31 997.1 - 0.2
14/01:00pm 8.2 -1.2 5.5 83 1.2 NW 44 52 24 28 996.7 - 0.2
14/12:30pm 7.9 -0.1 5.7 86 1.0 NW 37 44 20 24 996.4 - 0.2
14/12:00pm 7.8 -1.5 5.1 83 1.2 NW 43 54 23 29 996.1 996.4 0.2
14/11:30am 7.9 -1.9 5.5 85 1.1 NW 46 54 25 29 995.7 - 0.0
14/11:00am 8.0 -1.7 6.0 87 0.9 NW 46 54 25 29 995.4 - 0.0
14/10:30am 7.7 -0.2 6.2 90 0.7 NW 37 46 20 25 995.1 - 0.0
14/10:00am 7.6 -0.3 6.2 91 0.6 NNW 37 44 20 24 994.8 - 0.0
14/09:30am 7.2 -0.8 5.7 90 0.7 NW 37 48 20 26 994.4 - 0.0
14/09:00am 7.1 -1.7 5.6 90 0.7 NW 41 50 22 27 993.9 994.2 4.8
14/08:30am 6.8 -2.4 5.4 91 0.6 NW 43 50 23 27 993.6 - 4.8
14/08:00am 6.6 -2.6 5.6 93 0.4 NW 43 48 23 26 993.3 - 4.8
14/07:30am 6.4 -4.1 5.5 94 0.4 WNW 50 59 27 32 992.8 - 4.8
14/07:00am 6.8 -2.8 6.4 97 0.2 NW 46 54 25 29 992.1 - 4.8
14/06:30am 6.6 -2.9 6.5 99 0.0 NW 46 56 25 30 991.3 - 4.8
14/06:00am 6.7 -3.2 6.6 99 0.0 NW 48 54 26 29 990.9 991.2 4.8
14/05:30am 6.8 -2.7 6.7 99 0.0 NW 46 54 25 29 990.6 - 4.8
14/05:00am 7.0 -2.5 6.9 99 0.0 NW 46 56 25 30 990.2 - 4.8
14/04:30am 7.1 -2.3 7.0 99 0.0 NW 46 54 25 29 989.9 - 4.8
14/04:00am 7.3 -1.7 7.2 99 0.0 NW 44 56 24 30 989.6 - 4.8
14/03:30am 7.3 -3.2 7.2 99 0.0 NNW 52 61 28 33 989.3 - 4.8
14/03:00am 7.5 -3.4 7.4 99 0.0 NNW 54 65 29 35 989.0 989.3 4.8
14/02:30am 7.6 -3.8 7.5 99 0.0 NNW 57 65 31 35 988.7 - 4.8
14/02:00am 7.8 -3.9 7.7 99 0.0 NNW 59 69 32 37 988.4 - 4.8
14/01:30am 7.9 -3.8 7.9 100 0.0 NNW 59 70 32 38 988.3 - 4.8
14/01:00am 8.0 -3.7 8.0 100 0.0 NNW 59 69 32 37 988.4 - 4.2
14/12:30am 8.1 -4.3 8.0 99 0.0 NNW 63 76 34 41 988.4 - 4.2
14/12:00am 7.9 -4.2 7.9 100 0.0 NNW 61 72 33 39 988.6 988.9 3.8
 
Date/Time
EDT
Temp
°C
App
Temp
°C
Dew
Point
°C
Rel
Hum
%
Delta-T
°C
Wind Press
QNH
hPa
Press
MSL
hPa
Rain since
9am
mm
Dir  Spd
km/h
Gust
km/h
Spd
kts
Gust
kts
13/11:30pm 7.8 -4.3 7.7 99 0.0 NNW 61 70 33 38 989.0 - 3.0
13/11:00pm 7.8 -4.7 7.7 99 0.0 NNW 63 80 34 43 989.5 - 2.4
13/10:30pm 7.8 -3.9 7.7 99 0.0 NNW 59 72 32 39 990.1 - 2.0
13/10:00pm 7.8 -4.7 7.7 99 0.0 N 63 78 34 42 990.6 - 2.0
13/09:30pm 7.7 -4.0 7.7 100 0.0 N 59 70 32 38 991.5 - 1.8
13/09:00pm 7.6 -3.8 7.6 100 0.0 N 57 67 31 36 992.0 992.3 1.4
13/08:30pm 7.4 -1.9 7.4 100 0.0 N 46 56 25 30 992.4 - 1.2
13/08:00pm 7.5 -3.4 7.4 99 0.0 N 54 63 29 34 993.4 - 0.8
13/07:30pm 7.4 -3.5 7.4 100 0.0 N 54 63 29 34 994.6 - 0.0
13/07:00pm 7.3 -2.8 7.2 99 0.0 N 50 57 27 31 995.4 - 0.0
13/06:30pm 7.0 -2.5 6.9 99 0.0 N 46 54 25 29 996.2 - 0.0
13/06:00pm 6.9 -1.3 6.6 98 0.1 N 39 46 21 25 997.1 997.4 0.0
13/05:30pm 6.9 -1.7 6.6 98 0.1 N 41 48 22 26 997.8 - 0.0
13/05:00pm 6.7 -1.6 6.3 97 0.2 NNW 39 44 21 24 998.6 - 0.0
13/04:30pm 6.6 -2.4 6.3 98 0.1 NNW 43 48 23 26 999.2 - 0.0

Other Formats:

Comma delimited format used in spreadsheet applications
http://www.bom.gov.au/fwo/IDT60801/IDT60801.94998.axf

JavaScript Object Notation format (JSON) in row-major order
http://www.bom.gov.au/fwo/IDT60801/IDT60801.94998.json